Time;durP1;ratioP1;P1;durP2;ratioP2;P2;SDS_P1;SDS_P2;PMS_P1;PMS_P2;Temp;Humidity;BMP_temperature;BMP_pressure;BME280_temperature;BME280_humidity;BME280_pressure;Samples;Min_cycle;Max_cycle;Signal;HPM_P1;HPM_P2
2023/09/01 00:01:25;;;;;;;4.50;3.80;;;;;;;12.30;100.00;99008.63;270132;1279;22439;-83
2023/09/01 00:07:59;;;;;;;5.50;4.10;;;;;;;12.17;100.00;99015.16;270814;1278;22447;-84
2023/09/01 00:14:00;;;;;;;9.00;4.50;;;;;;;12.06;100.00;99020.82;271674;1278;23355;-84
2023/09/01 00:20:01;;;;;;;6.50;4.00;;;;;;;12.05;100.00;99019.01;271704;1278;22219;-84
2023/09/01 00:26:02;;;;;;;8.80;4.60;;;;;;;12.16;100.00;99018.91;270853;1278;22587;-84
2023/09/01 00:32:23;;;;;;;6.10;4.60;;;;;;;12.21;100.00;99021.45;271090;1278;22522;-84
2023/09/01 00:38:24;;;;;;;7.60;4.70;;;;;;;12.27;100.00;99016.22;270960;1278;22563;-84
2023/09/01 00:44:25;;;;;;;7.30;4.60;;;;;;;12.30;100.00;99008.23;270443;1278;22235;-85
2023/09/01 00:50:26;;;;;;;7.30;3.70;;;;;;;12.29;100.00;99010.73;271782;1278;22270;-85
2023/09/01 00:56:28;;;;;;;7.30;3.90;;;;;;;12.30;100.00;99016.94;271846;1278;22441;-85
2023/09/01 01:02:29;;;;;;;7.60;4.70;;;;;;;12.33;100.00;99011.70;272699;1272;22231;-84
2023/09/01 01:08:35;;;;;;;7.00;4.50;;;;;;;12.37;100.00;99007.95;272499;1265;23174;-84
2023/09/01 01:15:09;;;;;;;8.90;4.00;;;;;;;12.41;100.00;99010.95;272688;1271;22230;-84
2023/09/01 01:21:25;;;;;;;7.80;3.90;;;;;;;12.41;100.00;99014.64;272939;1272;22536;-85
2023/09/01 01:27:27;;;;;;;6.30;3.90;;;;;;;12.34;100.00;99025.19;270682;1272;22550;-83
2023/09/01 01:34:01;;;;;;;6.10;4.10;;;;;;;12.31;100.00;99035.68;270144;1271;22855;-85
2023/09/01 01:40:45;;;;;;;5.70;4.10;;;;;;;12.25;100.00;99027.04;270638;1270;22475;-85
2023/09/01 01:46:47;;;;;;;8.50;4.60;;;;;;;12.23;100.00;99026.01;269797;1271;23443;-84
2023/09/01 01:52:48;;;;;;;6.40;4.00;;;;;;;12.25;100.00;99026.42;272849;1271;22446;-84
2023/09/01 01:58:49;;;;;;;5.00;3.60;;;;;;;12.19;100.00;99022.70;272755;1272;22405;-85
2023/09/01 02:04:51;;;;;;;6.80;3.30;;;;;;;12.18;100.00;99029.73;272588;1271;22470;-85
2023/09/01 02:10:55;;;;;;;5.70;3.20;;;;;;;12.16;100.00;99028.86;272888;1271;23668;-84
2023/09/01 02:16:58;;;;;;;8.70;3.50;;;;;;;12.16;100.00;99033.48;272802;1270;23978;-85
2023/09/01 02:23:04;;;;;;;7.90;3.40;;;;;;;12.10;100.00;99033.47;272779;1272;22424;-84
2023/09/01 02:29:06;;;;;;;5.60;3.20;;;;;;;12.00;100.00;99033.71;272708;1265;23048;-84
2023/09/01 02:35:08;;;;;;;6.80;3.50;;;;;;;11.88;100.00;99024.00;272791;1271;22373;-84
2023/09/01 02:41:09;;;;;;;13.30;3.80;;;;;;;11.76;100.00;99019.77;272781;1271;23368;-83
2023/09/01 02:47:10;;;;;;;4.50;3.20;;;;;;;11.63;100.00;99026.56;272866;1270;22465;-85
2023/09/01 02:53:12;;;;;;;4.80;3.20;;;;;;;11.46;100.00;99033.14;272333;1271;23682;-85
2023/09/01 02:59:13;;;;;;;6.60;3.70;;;;;;;11.45;100.00;99030.40;272079;1270;22326;-85
2023/09/01 03:05:14;;;;;;;4.50;3.40;;;;;;;11.49;100.00;99032.86;273017;1270;22486;-84
2023/09/01 03:11:36;;;;;;;4.30;3.30;;;;;;;11.51;100.00;99030.52;273147;1270;22413;-84
2023/09/01 03:17:37;;;;;;;5.80;3.30;;;;;;;11.51;100.00;99028.17;272702;1271;24613;-83
2023/09/01 03:23:38;;;;;;;5.90;3.40;;;;;;;11.52;100.00;99034.84;270724;1270;22408;-84
2023/09/01 03:29:44;;;;;;;3.40;2.90;;;;;;;11.52;100.00;99038.76;270037;1268;22546;-84
2023/09/01 03:35:45;;;;;;;7.20;3.20;;;;;;;11.51;100.00;99038.66;270246;1270;25725;-84
2023/09/01 03:42:08;;;;;;;6.20;3.80;;;;;;;11.44;100.00;99039.54;270023;1270;23937;-84
2023/09/01 03:48:09;;;;;;;5.70;3.30;;;;;;;11.39;100.00;99045.45;271108;1270;22562;-84
2023/09/01 03:54:10;;;;;;;6.60;3.50;;;;;;;11.35;100.00;99056.38;269781;1270;22600;-84
2023/09/01 04:00:12;;;;;;;4.50;3.30;;;;;;;11.38;100.00;99061.19;270098;1270;25499;-83
2023/09/01 04:06:16;;;;;;;6.40;3.60;;;;;;;11.36;100.00;99062.90;269873;1269;22577;-83
2023/09/01 04:13:01;;;;;;;4.90;3.30;;;;;;;11.31;100.00;99058.31;269942;1272;22312;-83
2023/09/01 04:19:03;;;;;;;8.40;3.50;;;;;;;11.29;100.00;99057.19;271632;1270;23304;-83
2023/09/01 04:25:05;;;;;;;6.30;3.20;;;;;;;11.21;100.00;99056.27;271568;1270;22764;-83
2023/09/01 04:31:32;;;;;;;7.50;3.30;;;;;;;11.13;100.00;99052.11;270442;1270;22463;-83
2023/09/01 04:37:45;;;;;;;5.10;3.10;;;;;;;11.16;100.00;99059.65;270005;1270;22465;-83
2023/09/01 04:59:48;;;;;;;8.50;3.90;;;;;;;11.45;100.00;99079.66;270637;1270;23931;-84
2023/09/01 05:05:50;;;;;;;4.70;3.20;;;;;;;11.59;100.00;99087.46;270660;1270;23937;-84
2023/09/01 05:11:51;;;;;;;6.20;3.50;;;;;;;11.79;100.00;99080.42;271478;1270;23006;-85
2023/09/01 05:58:33;;;;;;;4.30;2.60;;;;;;;14.27;100.00;99102.14;270504;1270;22568;-83
2023/09/01 06:04:56;;;;;;;3.30;2.40;;;;;;;14.64;100.00;99106.86;270135;1270;24283;-84
2023/09/01 06:11:04;;;;;;;4.50;2.40;;;;;;;14.77;100.00;99115.16;270868;1270;22524;-84
2023/09/01 06:17:06;;;;;;;4.00;2.20;;;;;;;14.75;100.00;99122.26;270833;1264;23552;-83
2023/09/01 06:23:07;;;;;;;4.80;2.50;;;;;;;14.68;100.00;99120.77;270130;1270;22597;-84
2023/09/01 06:29:08;;;;;;;6.40;2.20;;;;;;;14.85;100.00;99124.42;272928;1269;22222;-84
2023/09/01 06:51:11;;;;;;;4.60;2.50;;;;;;;15.36;100.00;99127.64;272963;1271;22475;-85
2023/09/01 06:57:12;;;;;;;4.10;2.30;;;;;;;15.52;100.00;99131.81;272035;1270;22442;-84
2023/09/01 07:03:13;;;;;;;4.70;2.10;;;;;;;15.72;100.00;99126.30;271516;1266;22537;-85
2023/09/01 07:09:14;;;;;;;7.20;2.50;;;;;;;15.95;100.00;99124.95;272876;1271;22417;-86
2023/09/01 07:15:15;;;;;;;3.20;2.00;;;;;;;16.22;100.00;99127.31;273364;1269;22312;-85
2023/09/01 07:21:16;;;;;;;7.30;2.30;;;;;;;16.47;100.00;99129.06;273201;1271;22428;-85
2023/09/01 07:27:17;;;;;;;3.90;1.90;;;;;;;16.69;100.00;99129.85;273257;1269;22300;-85
2023/09/01 07:33:43;;;;;;;3.00;2.00;;;;;;;17.00;100.00;99132.17;273198;1270;22235;-84
2023/09/01 07:39:44;;;;;;;4.50;2.00;;;;;;;17.34;100.00;99132.91;272962;1270;22599;-84
2023/09/01 07:46:06;;;;;;;6.80;2.30;;;;;;;17.59;100.00;99133.44;269746;1270;22533;-85
2023/09/01 07:52:07;;;;;;;3.90;1.80;;;;;;;17.83;100.00;99134.64;270761;1271;24256;-85
2023/09/01 07:58:08;;;;;;;3.40;2.40;;;;;;;18.12;100.00;99138.66;271069;1272;22215;-84
2023/09/01 08:04:09;;;;;;;5.20;2.20;;;;;;;18.53;100.00;99137.02;271826;1271;23806;-84
2023/09/01 08:17:24;;;;;;;5.60;1.90;;;;;;;19.26;99.85;99136.20;270280;1270;23975;-85
2023/09/01 08:23:26;;;;;;;4.90;1.70;;;;;;;19.36;98.02;99140.91;270707;1270;22603;-84
2023/09/01 08:29:30;;;;;;;3.20;1.50;;;;;;;19.40;97.34;99144.41;273464;1270;22326;-85
2023/09/01 08:35:35;;;;;;;6.90;1.70;;;;;;;19.62;96.25;99141.11;273227;1270;23107;-84
2023/09/01 08:41:50;;;;;;;5.40;1.80;;;;;;;19.82;95.20;99139.15;273392;1270;22323;-84
2023/09/01 08:48:15;;;;;;;6.60;2.00;;;;;;;19.83;93.83;99142.53;273313;1270;22999;-85
2023/09/01 09:01:24;;;;;;;5.20;1.90;;;;;;;19.84;89.77;99145.46;273385;1272;22354;-85
2023/09/01 09:07:25;;;;;;;4.00;1.70;;;;;;;20.05;88.14;99151.45;273113;1270;22342;-84
2023/09/01 09:13:50;;;;;;;3.70;1.80;;;;;;;20.03;87.01;99160.62;273302;1270;23521;-85
2023/09/01 09:20:22;;;;;;;3.50;2.00;;;;;;;20.05;86.64;99160.03;272385;1270;23214;-84
2023/09/01 09:27:53;;;;;;;3.50;1.70;;;;;;;20.72;86.67;99166.09;273333;1270;22386;-85
2023/09/01 09:35:09;;;;;;;5.20;1.80;;;;;;;21.15;84.94;99167.95;273244;1270;22219;-85
2023/09/01 09:49:16;;;;;;;3.90;1.60;;;;;;;20.63;81.71;99173.09;271503;1272;23863;-84
2023/09/01 09:55:42;;;;;;;5.20;2.10;;;;;;;20.47;81.15;99172.66;269868;1273;22556;-86
2023/09/01 10:01:45;;;;;;;3.70;1.70;;;;;;;20.34;80.90;99169.20;270462;1271;22580;-85
2023/09/01 10:07:49;;;;;;;4.90;1.70;;;;;;;20.42;80.56;99169.28;270411;1272;22766;-86
2023/09/01 10:13:51;;;;;;;3.90;1.80;;;;;;;21.06;80.68;99167.45;272594;1271;22405;-86
2023/09/01 10:19:54;;;;;;;4.30;2.50;;;;;;;21.65;79.56;99168.14;272223;1271;24295;-86
2023/09/01 10:26:40;;;;;;;3.30;2.00;;;;;;;21.97;78.31;99167.45;272637;1271;22159;-85
2023/09/01 10:33:12;;;;;;;4.30;1.60;;;;;;;21.92;77.17;99162.59;271015;1278;22616;-85
2023/09/01 10:39:16;;;;;;;4.10;1.80;;;;;;;21.72;76.00;99164.80;271681;1274;22699;-85
2023/09/01 10:45:35;;;;;;;4.90;1.90;;;;;;;21.67;75.59;99170.61;272807;1273;23561;-85
2023/09/01 10:52:28;;;;;;;3.00;1.70;;;;;;;22.04;75.34;99165.32;272072;1272;22625;-86
2023/09/01 10:59:06;;;;;;;3.60;1.80;;;;;;;22.55;73.66;99160.17;271109;1275;23423;-87
2023/09/01 11:05:15;;;;;;;3.20;1.60;;;;;;;22.80;72.21;99151.34;270894;1273;23680;-85
2023/09/01 11:12:03;;;;;;;3.80;1.70;;;;;;;22.44;70.63;99149.07;271926;1270;22366;-85
2023/09/01 11:18:19;;;;;;;3.10;1.80;;;;;;;21.96;70.76;99147.41;271285;1272;23411;-85
2023/09/01 11:24:21;;;;;;;3.70;1.80;;;;;;;21.67;72.02;99150.56;267633;1272;3582068;-85
2023/09/01 11:30:25;;;;;;;3.40;1.70;;;;;;;21.46;71.32;99149.11;270118;1273;22562;-85
2023/09/01 11:36:34;;;;;;;4.10;2.00;;;;;;;21.49;71.24;99151.40;270697;1271;22248;-85
2023/09/01 11:42:39;;;;;;;3.50;1.90;;;;;;;21.63;71.52;99144.87;269914;1272;22566;-85
2023/09/01 11:49:10;;;;;;;6.10;1.90;;;;;;;21.91;71.63;99139.31;270994;1271;22201;-85
2023/09/01 11:56:00;;;;;;;3.10;1.80;;;;;;;21.96;70.66;99137.73;270407;1271;26298;-85
2023/09/01 12:02:24;;;;;;;6.60;2.00;;;;;;;22.02;68.32;99124.55;270569;1272;22187;-86
2023/09/01 12:09:12;;;;;;;3.70;1.70;;;;;;;21.84;69.28;99125.84;270672;1273;22650;-85
2023/09/01 12:15:14;;;;;;;5.20;1.90;;;;;;;21.71;69.42;99120.27;270718;1271;22541;-85
2023/09/01 12:21:15;;;;;;;3.60;1.80;;;;;;;21.63;69.78;99115.56;270781;1270;23290;-85
2023/09/01 12:27:17;;;;;;;4.60;2.10;;;;;;;21.56;70.00;99118.08;271445;1270;22969;-86
2023/09/01 12:33:18;;;;;;;3.00;1.70;;;;;;;21.42;69.86;99108.05;273227;1271;23104;-85
2023/09/01 12:39:25;;;;;;;6.20;2.20;;;;;;;21.30;70.06;99103.38;271770;1270;22189;-86
2023/09/01 12:45:26;;;;;;;4.40;1.70;;;;;;;21.41;69.52;99099.95;273205;1270;22305;-85
2023/09/01 12:52:19;;;;;;;4.40;2.00;;;;;;;21.63;68.84;99105.86;273124;1273;22317;-85
2023/09/01 12:58:21;;;;;;;3.40;2.20;;;;;;;21.64;69.18;99105.02;273251;1269;22305;-85
2023/09/01 13:04:22;;;;;;;8.70;2.50;;;;;;;21.54;68.19;99105.66;273170;1273;22337;-86
2023/09/01 13:10:26;;;;;;;3.40;1.90;;;;;;;21.47;68.34;99105.80;273012;1272;22276;-85
2023/09/01 13:16:52;;;;;;;3.80;1.70;;;;;;;21.40;68.77;99108.41;273095;1273;23387;-85
2023/09/01 13:23:04;;;;;;;3.80;1.90;;;;;;;21.35;68.01;99104.13;272683;1272;22355;-85
2023/09/01 13:29:06;;;;;;;4.10;1.60;;;;;;;21.30;67.71;99100.91;273336;1273;22282;-85
2023/09/01 13:35:07;;;;;;;3.30;2.00;;;;;;;21.21;67.99;99102.39;272682;1270;23190;-85
2023/09/01 13:49:19;;;;;;;;;;;;;;;20.96;67.74;99099.55;273433;1272;23169;-85
2023/09/01 13:56:49;;;;;;;5.40;1.80;;;;;;;20.94;67.18;99098.02;271733;1280;23388;-84
2023/09/01 14:05:06;;;;;;;4.40;1.90;;;;;;;20.84;67.32;99098.39;271102;1284;22369;-85
2023/09/01 14:12:50;;;;;;;5.60;2.10;;;;;;;20.75;67.82;99097.59;269346;1290;23479;-85
2023/09/01 14:20:20;;;;;;;5.60;2.40;;;;;;;20.73;68.34;99102.33;268166;1296;22392;-84
2023/09/01 14:28:14;;;;;;;6.30;2.70;;;;;;;20.72;69.16;99112.45;268254;1290;23387;-85
2023/09/01 14:36:03;;;;;;;7.50;2.80;;;;;;;20.70;69.30;99114.11;269776;1287;22683;-84
2023/09/01 14:43:37;;;;;;;6.60;3.00;;;;;;;20.62;69.53;99115.44;267371;1295;22258;-84
2023/09/01 15:06:43;;;;;;;6.60;3.20;;;;;;;20.49;69.94;99119.53;267394;1290;22197;-85
2023/09/01 15:54:59;;;;;;;4.60;2.00;;;;;;;20.02;72.72;99111.50;269978;1277;22596;-84
2023/09/01 16:02:53;;;;;;;4.40;2.20;;;;;;;19.98;72.84;99113.60;271434;1273;23565;-85
2023/09/01 16:18:48;;;;;;;5.50;2.30;;;;;;;19.99;73.31;99100.53;270358;1275;22578;-85
2023/09/01 16:57:49;;;;;;;4.60;2.50;;;;;;;19.59;74.61;99103.27;270246;1275;22299;-84
2023/09/01 17:05:27;;;;;;;5.30;2.80;;;;;;;19.43;74.49;99106.73;271072;1276;22193;-84
2023/09/01 17:13:31;;;;;;;5.30;2.80;;;;;;;19.24;74.85;99110.95;271776;1280;22248;-85
2023/09/01 18:00:38;;;;;;;8.40;3.90;;;;;;;18.43;78.36;99134.69;268619;1292;22395;-84
2023/09/01 18:08:14;;;;;;;5.40;3.20;;;;;;;18.24;79.40;99143.54;268121;1298;22253;-84
2023/09/01 19:11:08;;;;;;;6.60;3.20;;;;;;;17.92;84.25;99160.86;273403;1272;22377;-84
2023/09/01 19:58:28;;;;;;;6.10;3.00;;;;;;;17.47;87.69;99159.00;271559;1275;22558;-85
2023/09/01 20:22:10;;;;;;;4.20;3.20;;;;;;;17.38;91.53;99172.05;270680;1280;22352;-84
2023/09/01 20:37:55;;;;;;;4.60;3.10;;;;;;;17.24;92.27;99177.77;268643;1285;22564;-84
2023/09/01 20:53:55;;;;;;;9.30;3.30;;;;;;;17.09;92.66;99181.60;270003;1290;22248;-84
2023/09/01 21:40:54;;;;;;;14.00;7.90;;;;;;;16.28;97.79;99172.30;270099;1283;23443;-84
2023/09/01 21:56:57;;;;;;;8.80;5.60;;;;;;;16.13;99.64;99167.48;267096;1287;24518;-83
2023/09/01 22:28:56;;;;;;;9.40;5.00;;;;;;;16.11;100.00;99163.79;265067;1289;23910;-83
2023/09/01 22:36:11;;;;;;;7.40;4.90;;;;;;;16.17;100.00;99168.86;264039;1299;22585;-83
2023/09/01 23:15:16;;;;;;;6.50;4.80;;;;;;;16.22;100.00;99168.81;271562;1285;22292;-83
2023/09/01 23:31:19;;;;;;;9.20;5.10;;;;;;;16.22;100.00;99164.71;267239;1282;23540;-84
2023/09/01 23:38:40;;;;;;;7.40;4.60;;;;;;;16.20;100.00;99178.23;267291;1287;24042;-84
2023/09/01 23:53:31;;;;;;;13.00;5.80;;;;;;;16.12;100.00;99205.90;271854;1275;22246;-84
